Time;durP1;ratioP1;P1;durP2;ratioP2;P2;SDS_P1;SDS_P2;PMS_P1;PMS_P2;Temp;Humidity;BMP_temperature;BMP_pressure;BME280_temperature;BME280_humidity;BME280_pressure;Samples;Min_cycle;Max_cycle;Signal;HPM_P1;HPM_P2
2022/02/23 00:01:44;;;;;;;18.40;2.53;;;6.50;99.90;;;;;;5068291;28;20031;-43
2022/02/23 00:04:10;;;;;;;12.75;3.33;;;6.60;99.90;;;;;;5080976;28;20032;-43
2022/02/23 00:06:35;;;;;;;12.75;2.58;;;6.50;99.90;;;;;;5069048;28;20380;-42
2022/02/23 00:09:02;;;;;;;11.60;2.45;;;6.50;99.90;;;;;;5080839;28;20383;-42
2022/02/23 00:11:28;;;;;;;14.95;2.33;;;6.60;99.90;;;;;;5068440;28;20024;-43
2022/02/23 00:13:54;;;;;;;14.45;2.42;;;6.50;99.90;;;;;;5079028;28;20036;-44
2022/02/23 00:16:20;;;;;;;12.52;2.78;;;6.50;99.90;;;;;;5069974;28;20033;-41
2022/02/23 00:18:47;;;;;;;18.10;3.08;;;6.50;99.90;;;;;;5076267;28;20030;-42
2022/02/23 00:21:13;;;;;;;12.50;3.35;;;6.50;99.90;;;;;;5073791;28;20107;-40
2022/02/23 00:23:39;;;;;;;13.80;2.40;;;6.50;99.90;;;;;;5073024;28;20024;-42
2022/02/23 00:26:04;;;;;;;12.65;2.33;;;6.40;99.90;;;;;;5076326;28;20059;-43
2022/02/23 00:28:30;;;;;;;11.48;2.70;;;6.40;99.90;;;;;;5070445;28;20155;-42
2022/02/23 00:30:55;;;;;;;16.25;2.50;;;6.40;99.90;;;;;;5078121;28;20054;-42
2022/02/23 00:33:21;;;;;;;18.27;2.63;;;6.40;99.90;;;;;;5069342;28;20054;-43
2022/02/23 00:35:46;;;;;;;13.48;3.20;;;6.40;99.90;;;;;;5079690;28;20071;-43
2022/02/23 00:38:12;;;;;;;13.02;2.35;;;6.40;99.90;;;;;;5068381;28;20383;-44
2022/02/23 00:40:38;;;;;;;9.85;2.35;;;6.30;99.90;;;;;;5079527;28;20464;-43
2022/02/23 00:43:06;;;;;;;13.75;3.00;;;6.40;99.90;;;;;;5069037;28;20024;-43
2022/02/23 00:45:31;;;;;;;14.15;3.60;;;6.30;99.90;;;;;;5079459;28;20024;-43
2022/02/23 00:47:57;;;;;;;9.40;2.30;;;6.30;99.90;;;;;;5068307;28;20055;-42
2022/02/23 00:50:22;;;;;;;10.73;2.40;;;6.20;99.90;;;;;;5079904;28;20020;-42
2022/02/23 00:52:48;;;;;;;16.08;2.97;;;6.20;99.90;;;;;;5067124;28;20407;-42
2022/02/23 00:55:13;;;;;;;11.32;2.35;;;6.20;99.90;;;;;;5077180;28;20021;-44
2022/02/23 00:57:39;;;;;;;15.30;2.90;;;6.20;99.90;;;;;;5071613;28;20029;-43
2022/02/23 01:00:05;;;;;;;12.70;2.53;;;6.20;99.90;;;;;;5074408;28;20111;-43
2022/02/23 01:02:31;;;;;;;8.98;3.17;;;6.20;99.90;;;;;;5073579;28;20083;-42
2022/02/23 01:04:56;;;;;;;9.85;2.05;;;6.20;99.90;;;;;;5071723;28;20475;-42
2022/02/23 01:07:22;;;;;;;11.95;2.33;;;6.10;99.90;;;;;;5075553;28;20032;-43
2022/02/23 01:09:48;;;;;;;14.98;2.60;;;6.10;99.90;;;;;;5069207;28;20024;-43
2022/02/23 01:12:13;;;;;;;18.70;2.83;;;6.10;99.90;;;;;;5076953;28;20027;-43
2022/02/23 01:14:39;;;;;;;15.23;3.20;;;6.10;99.90;;;;;;5069418;28;20024;-43
2022/02/23 01:17:05;;;;;;;16.45;3.15;;;6.10;99.90;;;;;;5078923;28;20476;-43
2022/02/23 01:19:30;;;;;;;15.68;2.95;;;6.10;99.90;;;;;;5066970;28;20500;-43
2022/02/23 01:21:56;;;;;;;13.63;2.75;;;6.10;99.90;;;;;;5080718;28;20460;-43
2022/02/23 01:24:22;;;;;;;11.77;2.25;;;6.10;99.90;;;;;;5067193;28;20066;-44
2022/02/23 01:26:48;;;;;;;10.52;2.38;;;6.00;99.90;;;;;;5079374;28;20024;-42
2022/02/23 01:29:13;;;;;;;14.48;2.65;;;6.00;99.90;;;;;;5067027;28;20090;-42
2022/02/23 01:31:39;;;;;;;16.02;3.83;;;6.00;99.90;;;;;;5078844;28;20046;-42
2022/02/23 01:34:04;;;;;;;13.70;2.03;;;6.00;99.90;;;;;;5067634;28;20032;-43
2022/02/23 01:36:30;;;;;;;11.10;2.30;;;6.00;99.90;;;;;;5075701;28;20059;-42
2022/02/23 01:38:55;;;;;;;8.43;1.70;;;6.00;99.90;;;;;;5071133;28;20060;-43
2022/02/23 01:41:21;;;;;;;11.02;2.40;;;6.00;99.90;;;;;;5071668;28;20020;-43
2022/02/23 01:43:47;;;;;;;12.45;2.63;;;6.00;99.90;;;;;;5073766;28;20025;-42
2022/02/23 01:46:13;;;;;;;12.95;3.63;;;5.90;99.90;;;;;;5070303;28;20074;-42
2022/02/23 01:48:39;;;;;;;15.60;2.67;;;5.90;99.90;;;;;;5075465;28;20028;-43
2022/02/23 01:51:04;;;;;;;19.23;3.42;;;5.90;99.90;;;;;;5068715;28;20028;-44
2022/02/23 01:53:30;;;;;;;12.75;2.63;;;5.90;99.90;;;;;;5077265;28;20076;-42
2022/02/23 01:55:55;;;;;;;10.77;2.70;;;5.90;99.90;;;;;;5067103;28;20407;-43
2022/02/23 01:58:21;;;;;;;8.90;2.15;;;5.90;99.90;;;;;;5077827;28;20025;-43
2022/02/23 02:00:47;;;;;;;20.58;3.75;;;5.90;99.90;;;;;;5066655;28;20032;-42
2022/02/23 02:03:12;;;;;;;12.40;2.80;;;5.80;99.90;;;;;;5078066;28;20047;-43
2022/02/23 02:05:38;;;;;;;14.35;3.00;;;5.80;99.90;;;;;;5066968;28;20075;-43
2022/02/23 02:08:03;;;;;;;11.55;2.63;;;5.90;99.90;;;;;;5079492;28;20024;-43
2022/02/23 02:10:29;;;;;;;16.80;2.78;;;5.90;99.90;;;;;;5066144;28;20040;-42
2022/02/23 02:12:55;;;;;;;12.40;3.35;;;5.90;99.90;;;;;;5077702;28;20020;-42
2022/02/23 02:15:20;;;;;;;12.07;2.65;;;5.80;99.90;;;;;;5067640;28;20136;-42
2022/02/23 02:17:46;;;;;;;12.63;2.45;;;5.80;99.90;;;;;;5074008;28;20035;-40
2022/02/23 02:20:12;;;;;;;13.65;2.42;;;5.80;99.90;;;;;;5071166;28;20491;-42
2022/02/23 02:22:37;;;;;;;10.13;2.47;;;5.80;99.90;;;;;;5070317;28;20115;-42
2022/02/23 02:25:04;;;;;;;9.75;2.08;;;5.80;99.90;;;;;;5074004;28;20028;-42
2022/02/23 02:27:30;;;;;;;11.80;2.58;;;5.70;99.90;;;;;;5068792;28;20034;-43
2022/02/23 02:29:55;;;;;;;13.43;2.70;;;5.70;99.90;;;;;;5075172;28;20090;-43
2022/02/23 02:32:21;;;;;;;12.32;2.65;;;5.70;99.90;;;;;;5067553;28;20691;-42
2022/02/23 02:34:47;;;;;;;10.15;1.92;;;5.70;99.90;;;;;;5077289;28;20456;-42
2022/02/23 02:37:14;;;;;;;9.15;2.50;;;5.60;99.90;;;;;;5066435;28;20411;-43
2022/02/23 02:39:39;;;;;;;12.38;2.35;;;5.60;99.90;;;;;;5077798;28;20025;-43
2022/02/23 02:42:05;;;;;;;7.35;1.67;;;5.60;99.90;;;;;;5065898;28;20039;-42
2022/02/23 02:44:32;;;;;;;9.25;2.00;;;5.60;99.90;;;;;;5077363;28;20042;-43
2022/02/23 02:46:57;;;;;;;11.35;2.17;;;5.50;99.90;;;;;;5066366;28;20675;-42
2022/02/23 02:49:23;;;;;;;11.73;1.90;;;5.50;99.90;;;;;;5072994;28;20031;-42
2022/02/23 02:51:49;;;;;;;8.38;2.08;;;5.40;99.90;;;;;;5065391;28;20032;-43
2022/02/23 02:54:14;;;;;;;7.00;1.80;;;5.30;99.90;;;;;;5074895;28;20048;-43
2022/02/23 02:56:41;;;;;;;7.60;1.60;;;5.20;99.90;;;;;;5068194;28;20127;-42
2022/02/23 02:59:07;;;;;;;9.05;2.00;;;5.20;99.90;;;;;;5072318;28;20684;-44
2022/02/23 03:01:34;;;;;;;11.40;1.90;;;5.10;99.90;;;;;;5070952;28;20044;-42
2022/02/23 03:04:00;;;;;;;11.43;1.80;;;5.10;99.90;;;;;;5070885;28;20031;-42
2022/02/23 03:06:26;;;;;;;11.00;2.05;;;5.00;99.90;;;;;;5071724;28;20059;-42
2022/02/23 03:08:54;;;;;;;8.10;1.80;;;5.00;99.90;;;;;;5068131;28;20024;-43
2022/02/23 03:11:20;;;;;;;7.85;1.63;;;4.90;99.90;;;;;;5075129;28;20035;-44
2022/02/23 03:13:46;;;;;;;9.95;2.00;;;4.90;99.90;;;;;;5066293;28;20027;-42
2022/02/23 03:16:13;;;;;;;8.00;2.20;;;4.90;99.90;;;;;;5076301;28;20044;-43
2022/02/23 03:18:39;;;;;;;6.65;1.90;;;4.90;99.90;;;;;;5066099;28;20028;-44
2022/02/23 03:21:05;;;;;;;9.20;2.03;;;4.80;99.90;;;;;;5076888;28;20039;-43
2022/02/23 03:23:30;;;;;;;5.93;1.60;;;4.80;99.90;;;;;;5065261;28;20032;-42
2022/02/23 03:25:56;;;;;;;6.47;1.83;;;4.80;99.90;;;;;;5077400;28;20135;-43
2022/02/23 03:28:22;;;;;;;13.10;3.05;;;4.80;99.90;;;;;;5065237;28;20057;-43
2022/02/23 03:30:48;;;;;;;8.18;2.25;;;4.80;99.90;;;;;;5078002;28;20110;-41
2022/02/23 03:33:14;;;;;;;9.45;2.13;;;4.70;99.90;;;;;;5064297;28;20132;-40
2022/02/23 03:35:41;;;;;;;11.13;2.35;;;4.70;99.90;;;;;;5077275;28;20035;-43
2022/02/23 03:38:07;;;;;;;8.48;2.05;;;4.70;99.90;;;;;;5072182;28;20025;-42
2022/02/23 03:40:33;;;;;;;8.45;2.40;;;4.70;99.90;;;;;;5076189;28;20463;-42
2022/02/23 03:43:00;;;;;;;10.18;1.80;;;4.70;99.90;;;;;;5073985;28;20032;-43
2022/02/23 03:45:25;;;;;;;9.25;2.03;;;4.70;99.90;;;;;;5074244;28;20364;-43
2022/02/23 03:47:51;;;;;;;10.07;2.00;;;4.60;99.90;;;;;;5076155;28;20105;-43
2022/02/23 03:50:17;;;;;;;12.40;2.45;;;4.60;99.90;;;;;;5078361;28;20059;-43
2022/02/23 03:52:42;;;;;;;12.20;2.20;;;4.60;99.90;;;;;;5079332;28;20081;-41
2022/02/23 03:55:09;;;;;;;11.18;2.30;;;4.60;99.90;;;;;;5086987;28;20055;-42
2022/02/23 03:57:35;;;;;;;15.35;2.40;;;4.60;99.90;;;;;;5077681;28;20087;-43
2022/02/23 04:00:01;;;;;;;13.93;3.42;;;4.60;99.90;;;;;;5087788;28;20535;-42
2022/02/23 04:02:27;;;;;;;11.57;2.67;;;4.60;99.90;;;;;;5077107;28;20030;-42
2022/02/23 04:04:52;;;;;;;12.98;2.30;;;4.70;99.90;;;;;;5089896;28;20020;-43
2022/02/23 04:07:18;;;;;;;11.07;2.38;;;4.60;99.90;;;;;;5075617;28;20024;-44
2022/02/23 04:09:47;;;;;;;7.57;2.40;;;4.70;99.90;;;;;;5088639;28;20026;-43
2022/02/23 04:12:13;;;;;;;8.60;1.65;;;4.70;99.90;;;;;;5076519;28;20036;-43
2022/02/23 04:14:39;;;;;;;6.40;1.83;;;4.70;99.90;;;;;;5089072;28;20048;-41
2022/02/23 04:17:05;;;;;;;8.68;1.85;;;4.70;99.90;;;;;;5077567;28;20068;-44
2022/02/23 04:19:30;;;;;;;13.73;3.83;;;4.70;99.90;;;;;;5086405;28;20082;-42
2022/02/23 04:21:56;;;;;;;7.50;2.00;;;4.70;99.90;;;;;;5080025;28;20060;-42
2022/02/23 04:24:21;;;;;;;14.98;2.60;;;4.60;99.90;;;;;;5083704;28;20024;-43
2022/02/23 04:26:47;;;;;;;8.35;2.30;;;4.60;99.90;;;;;;5084054;28;20029;-43
2022/02/23 04:29:12;;;;;;;8.10;2.22;;;4.60;99.90;;;;;;5080478;28;20028;-42
2022/02/23 04:31:38;;;;;;;5.50;1.67;;;4.60;99.90;;;;;;5086235;28;20024;-42
2022/02/23 04:34:03;;;;;;;9.85;1.80;;;4.50;99.90;;;;;;5078922;28;20049;-43
2022/02/23 04:36:29;;;;;;;4.60;1.50;;;4.50;99.90;;;;;;5086120;28;20384;-42
2022/02/23 04:38:54;;;;;;;9.82;2.05;;;4.50;99.90;;;;;;5077763;28;20055;-42
2022/02/23 04:41:20;;;;;;;7.65;2.05;;;4.50;99.90;;;;;;5087035;28;20027;-43
2022/02/23 04:43:46;;;;;;;12.93;2.00;;;4.50;99.90;;;;;;5076291;28;20372;-43
2022/02/23 04:46:12;;;;;;;11.85;2.17;;;4.50;99.90;;;;;;5088293;28;20069;-43
2022/02/23 04:48:40;;;;;;;8.68;1.77;;;4.50;99.90;;;;;;5075823;28;20523;-43
2022/02/23 04:51:05;;;;;;;6.03;2.28;;;4.50;99.90;;;;;;5087508;28;20460;-44
2022/02/23 04:53:31;;;;;;;11.32;2.42;;;4.50;99.90;;;;;;5074775;28;20049;-43
2022/02/23 04:55:57;;;;;;;7.80;2.42;;;4.50;99.90;;;;;;5068395;28;20455;-43
2022/02/23 04:58:23;;;;;;;4.93;1.73;;;4.50;99.90;;;;;;5076434;28;20036;-42
2022/02/23 05:00:49;;;;;;;8.52;2.00;;;4.50;99.90;;;;;;5071092;28;20025;-44
2022/02/23 05:03:17;;;;;;;10.55;2.20;;;4.50;99.90;;;;;;5074710;28;20031;-43
2022/02/23 05:05:45;;;;;;;7.15;1.85;;;4.50;99.90;;;;;;5072394;28;20028;-43
2022/02/23 05:08:12;;;;;;;10.73;1.85;;;4.50;99.90;;;;;;5073297;28;20039;-43
2022/02/23 05:10:38;;;;;;;11.15;3.05;;;4.50;99.90;;;;;;5074098;28;20479;-43
2022/02/23 05:13:04;;;;;;;11.85;2.35;;;4.40;99.90;;;;;;5070322;28;20035;-42
2022/02/23 05:15:30;;;;;;;7.57;1.90;;;4.40;99.90;;;;;;5076837;28;20024;-42
2022/02/23 05:17:55;;;;;;;8.25;2.13;;;4.30;99.90;;;;;;5069047;28;20123;-41
2022/02/23 05:20:21;;;;;;;8.73;1.92;;;4.30;99.90;;;;;;5077657;28;20039;-40
2022/02/23 05:22:48;;;;;;;9.93;2.75;;;4.20;99.90;;;;;;5068770;28;20368;-42
2022/02/23 05:25:15;;;;;;;6.40;2.20;;;4.30;99.90;;;;;;5077644;28;20025;-43
2022/02/23 05:27:42;;;;;;;6.63;2.03;;;4.20;99.90;;;;;;5067460;28;20025;-43
2022/02/23 05:30:08;;;;;;;7.63;2.10;;;4.20;99.90;;;;;;5079916;28;20119;-43
2022/02/23 05:32:35;;;;;;;8.90;1.80;;;4.20;99.90;;;;;;5066894;28;20434;-42
2022/02/23 05:35:00;;;;;;;9.70;2.58;;;4.20;99.90;;;;;;5079738;28;20040;-41
2022/02/23 05:37:26;;;;;;;9.02;2.65;;;4.10;99.90;;;;;;5066636;28;20024;-45
2022/02/23 05:39:51;;;;;;;8.48;2.35;;;4.10;99.90;;;;;;5077517;28;20558;-43
2022/02/23 05:42:17;;;;;;;6.85;1.52;;;4.10;99.90;;;;;;5068541;28;20021;-43
2022/02/23 05:44:43;;;;;;;7.72;2.33;;;4.00;99.90;;;;;;5075569;28;20024;-42
2022/02/23 05:47:08;;;;;;;6.10;2.03;;;4.00;99.90;;;;;;5070999;28;20056;-41
2022/02/23 05:49:34;;;;;;;11.95;2.42;;;4.00;99.90;;;;;;5072172;28;20085;-42
2022/02/23 05:51:59;;;;;;;7.80;2.25;;;4.00;99.90;;;;;;5074218;28;20108;-44
2022/02/23 05:54:25;;;;;;;7.88;2.10;;;4.00;99.90;;;;;;5068547;28;20518;-43
2022/02/23 05:56:50;;;;;;;10.13;2.35;;;4.00;99.90;;;;;;5076883;28;20510;-44
2022/02/23 05:59:16;;;;;;;8.60;2.20;;;4.00;99.90;;;;;;5067081;28;20742;-43
2022/02/23 06:01:41;;;;;;;9.07;2.65;;;4.00;99.90;;;;;;5078096;28;20468;-42
2022/02/23 06:04:07;;;;;;;8.13;2.05;;;4.00;99.90;;;;;;5067815;28;20032;-42
2022/02/23 06:06:33;;;;;;;15.48;2.22;;;4.00;99.90;;;;;;5077809;28;20111;-42
2022/02/23 06:08:58;;;;;;;10.30;2.65;;;3.90;99.90;;;;;;5066339;28;20031;-43
2022/02/23 06:11:25;;;;;;;9.98;2.42;;;3.90;99.90;;;;;;5078020;28;20043;-43
2022/02/23 06:13:53;;;;;;;5.47;2.50;;;3.90;99.90;;;;;;5066537;28;20190;-42
2022/02/23 06:16:21;;;;;;;7.43;3.35;;;3.90;99.90;;;;;;5077883;28;20051;-43
2022/02/23 06:18:47;;;;;;;11.50;2.50;;;3.80;99.90;;;;;;5066937;28;20038;-43
2022/02/23 06:21:12;;;;;;;12.07;2.60;;;3.80;99.90;;;;;;5076455;28;20028;-43
2022/02/23 06:23:38;;;;;;;9.55;1.98;;;3.80;99.90;;;;;;5067103;28;20038;-43
2022/02/23 06:26:05;;;;;;;8.68;2.30;;;3.70;99.90;;;;;;5074368;28;20127;-43
2022/02/23 06:28:31;;;;;;;8.60;2.60;;;3.70;99.90;;;;;;5069756;28;20086;-44
2022/02/23 06:30:57;;;;;;;8.00;2.42;;;3.70;99.90;;;;;;5071618;28;20032;-44
2022/02/23 06:33:25;;;;;;;7.82;2.47;;;3.60;99.90;;;;;;5072802;28;20493;-44
2022/02/23 06:35:54;;;;;;;8.00;2.22;;;3.60;99.90;;;;;;5068038;28;20814;-44
2022/02/23 06:38:20;;;;;;;6.22;2.30;;;3.60;99.90;;;;;;5074494;28;20029;-44
2022/02/23 06:40:48;;;;;;;14.48;2.50;;;3.50;99.90;;;;;;5070302;28;20031;-43
2022/02/23 06:43:18;;;;;;;9.13;2.72;;;3.50;99.90;;;;;;5074935;28;20059;-44
2022/02/23 06:45:45;;;;;;;8.10;2.78;;;3.50;99.90;;;;;;5085225;28;20112;-43
2022/02/23 06:48:11;;;;;;;10.98;2.90;;;3.40;99.90;;;;;;5074015;28;20028;-43
2022/02/23 06:50:36;;;;;;;8.90;2.70;;;3.40;99.90;;;;;;5082212;28;20032;-43
2022/02/23 06:53:03;;;;;;;8.50;2.40;;;3.40;99.90;;;;;;5072508;28;20497;-44
2022/02/23 06:55:28;;;;;;;9.95;2.65;;;3.40;99.90;;;;;;5084791;28;20551;-43
2022/02/23 06:57:54;;;;;;;8.75;3.15;;;3.40;99.90;;;;;;5071586;28;20036;-43
2022/02/23 07:00:19;;;;;;;6.32;2.10;;;3.40;99.90;;;;;;5083929;28;20051;-44
2022/02/23 07:02:45;;;;;;;6.28;2.38;;;3.50;99.90;;;;;;5073684;28;20038;-44
2022/02/23 07:05:11;;;;;;;8.95;2.80;;;3.50;99.90;;;;;;5083493;28;20119;-43
2022/02/23 07:07:36;;;;;;;7.82;2.33;;;3.50;99.90;;;;;;5075610;28;20148;-42
2022/02/23 07:10:08;;;;;;;10.32;2.45;;;3.50;99.90;;;;;;5081072;28;20480;-42
2022/02/23 07:12:35;;;;;;;8.88;2.60;;;3.60;99.90;;;;;;5076284;28;20551;-44
2022/02/23 07:15:01;;;;;;;6.72;2.40;;;3.60;99.90;;;;;;5079473;28;20076;-43
2022/02/23 07:17:27;;;;;;;10.57;2.53;;;3.60;99.90;;;;;;5079343;28;20478;-44
2022/02/23 07:19:53;;;;;;;8.98;2.38;;;3.60;99.90;;;;;;5076829;28;20028;-43
2022/02/23 07:22:18;;;;;;;7.72;2.83;;;3.60;99.90;;;;;;5082165;28;20107;-43
2022/02/23 07:24:44;;;;;;;13.07;2.45;;;3.60;99.90;;;;;;5074177;28;20024;-42
2022/02/23 07:27:11;;;;;;;8.32;2.40;;;3.70;99.90;;;;;;5082520;28;20032;-42
2022/02/23 07:29:37;;;;;;;6.57;2.72;;;3.70;99.90;;;;;;5073261;28;20024;-43
2022/02/23 07:32:03;;;;;;;7.82;2.67;;;3.70;99.90;;;;;;5083015;28;20089;-43
2022/02/23 07:34:28;;;;;;;14.80;4.28;;;3.70;99.90;;;;;;5072340;28;20031;-43
2022/02/23 07:36:54;;;;;;;7.70;2.50;;;3.70;99.90;;;;;;5082886;28;20557;-41
2022/02/23 07:39:20;;;;;;;8.55;2.20;;;3.80;99.90;;;;;;5070952;28;20488;-43
2022/02/23 07:41:45;;;;;;;8.95;2.67;;;3.80;99.90;;;;;;5084308;28;20741;-43
2022/02/23 07:44:11;;;;;;;8.88;2.50;;;3.90;99.90;;;;;;5088799;28;20118;-40
2022/02/23 07:46:37;;;;;;;9.35;2.63;;;3.90;99.90;;;;;;5086038;28;20060;-43
2022/02/23 07:49:03;;;;;;;7.68;3.00;;;4.00;99.90;;;;;;5085832;28;20103;-42
2022/02/23 07:51:29;;;;;;;6.93;2.65;;;4.00;99.90;;;;;;5064884;28;20440;-42
2022/02/23 07:53:55;;;;;;;8.32;2.92;;;4.00;99.90;;;;;;5071110;28;20534;-43
2022/02/23 07:56:25;;;;;;;7.95;2.38;;;4.10;99.90;;;;;;5070079;28;20056;-41
2022/02/23 07:58:51;;;;;;;8.85;2.33;;;4.10;99.90;;;;;;5070626;28;20020;-42
2022/02/23 08:01:47;;;;;;;9.95;2.63;;;4.10;99.90;;;;;;5070917;28;20039;-42
2022/02/23 08:04:13;;;;;;;10.10;2.50;;;4.10;99.90;;;;;;5058654;28;20043;-43
2022/02/23 08:06:40;;;;;;;6.95;2.42;;;4.20;99.90;;;;;;5072979;28;20033;-44
2022/02/23 08:09:08;;;;;;;9.90;2.85;;;4.20;99.90;;;;;;5074395;28;20193;-42
2022/02/23 08:11:36;;;;;;;10.13;2.92;;;4.20;99.90;;;;;;5072055;28;20389;-43
2022/02/23 08:14:09;;;;;;;7.43;2.65;;;4.20;99.90;;;;;;5067094;28;20586;-42
2022/02/23 08:19:32;;;;;;;8.68;3.00;;;4.30;99.90;;;;;;5067897;28;19950;-43
2022/02/23 08:21:59;;;;;;;9.55;2.80;;;4.40;99.90;;;;;;5074077;28;20449;-44
2022/02/23 08:24:29;;;;;;;10.85;2.67;;;4.40;99.90;;;;;;5070679;28;20028;-43
2022/02/23 08:26:56;;;;;;;6.60;2.25;;;4.40;99.90;;;;;;5077654;28;20571;-43
2022/02/23 08:29:22;;;;;;;9.13;3.15;;;4.50;99.90;;;;;;5068995;28;20036;-44
2022/02/23 08:31:48;;;;;;;9.15;2.58;;;4.50;99.90;;;;;;5079693;28;20055;-42
2022/02/23 08:34:14;;;;;;;4.82;2.22;;;4.60;99.90;;;;;;5069176;28;20475;-42
2022/02/23 08:36:39;;;;;;;5.75;2.00;;;4.60;99.90;;;;;;5079033;28;20040;-42
2022/02/23 08:39:07;;;;;;;9.02;2.30;;;4.70;99.90;;;;;;5068082;28;20020;-41
2022/02/23 08:41:33;;;;;;;4.43;2.33;;;4.80;99.90;;;;;;5080177;28;20078;-41
2022/02/23 08:44:00;;;;;;;8.88;2.90;;;4.80;99.90;;;;;;5067905;28;20028;-42
2022/02/23 08:46:26;;;;;;;10.40;2.80;;;4.90;99.90;;;;;;5080409;28;20024;-42
2022/02/23 08:48:52;;;;;;;8.50;2.92;;;5.00;99.90;;;;;;5069181;28;20396;-42
2022/02/23 08:51:20;;;;;;;9.00;2.55;;;5.10;99.90;;;;;;5075701;28;20072;-43
2022/02/23 08:53:46;;;;;;;13.57;3.17;;;5.20;99.90;;;;;;5087018;28;20921;-43
2022/02/23 08:56:12;;;;;;;8.65;2.85;;;5.40;99.90;;;;;;5078342;28;20040;-42
2022/02/23 08:58:38;;;;;;;10.70;2.60;;;5.60;99.90;;;;;;5084890;28;20371;-42
2022/02/23 09:01:03;;;;;;;8.77;3.33;;;5.70;99.90;;;;;;5081639;28;20482;-43
2022/02/23 09:03:29;;;;;;;8.55;2.60;;;5.80;99.90;;;;;;5080470;28;20035;-43
2022/02/23 09:05:54;;;;;;;8.70;2.92;;;6.00;99.90;;;;;;5084342;28;20027;-44
2022/02/23 09:08:19;;;;;;;7.35;2.85;;;6.00;99.90;;;;;;5078682;28;20477;-44
2022/02/23 09:10:45;;;;;;;8.50;2.72;;;6.00;99.90;;;;;;5086040;28;20022;-42
2022/02/23 09:13:11;;;;;;;7.28;2.72;;;6.10;99.90;;;;;;5076019;28;20421;-43
2022/02/23 09:15:36;;;;;;;9.52;2.83;;;6.10;99.90;;;;;;5086365;28;20028;-42
2022/02/23 09:18:03;;;;;;;7.80;2.38;;;6.10;99.90;;;;;;5076065;28;20054;-43
2022/02/23 09:20:29;;;;;;;11.32;3.30;;;6.10;99.90;;;;;;5087409;28;20487;-43
2022/02/23 09:22:55;;;;;;;10.52;2.85;;;6.10;99.90;;;;;;5080021;28;20570;-42
2022/02/23 09:25:23;;;;;;;5.93;2.38;;;6.20;99.90;;;;;;5065973;28;20062;-43
2022/02/23 09:27:49;;;;;;;9.70;3.70;;;6.20;99.90;;;;;;5080242;28;20024;-42
2022/02/23 09:30:15;;;;;;;6.57;2.97;;;6.30;99.90;;;;;;5067250;28;20675;-42
2022/02/23 09:32:41;;;;;;;7.03;2.95;;;6.30;99.90;;;;;;5077166;28;20028;-43
2022/02/23 09:35:09;;;;;;;10.15;3.10;;;6.40;99.90;;;;;;5068757;28;20037;-42
2022/02/23 09:37:34;;;;;;;6.43;3.15;;;6.50;99.90;;;;;;5075292;28;20028;-42
2022/02/23 09:40:01;;;;;;;7.72;2.80;;;6.50;99.90;;;;;;5068235;28;20054;-44
2022/02/23 09:42:28;;;;;;;10.38;3.63;;;6.60;99.90;;;;;;5073656;28;20046;-42
2022/02/23 09:45:01;;;;;;;7.25;3.78;;;6.70;99.90;;;;;;5073040;28;20056;-43
2022/02/23 09:47:30;;;;;;;9.88;4.10;;;6.80;99.90;;;;;;5070616;28;20477;-44
2022/02/23 09:49:56;;;;;;;7.38;3.40;;;6.90;99.90;;;;;;5073482;28;20027;-44
2022/02/23 09:52:24;;;;;;;9.60;3.58;;;7.00;99.90;;;;;;5069012;28;20020;-42
2022/02/23 09:54:51;;;;;;;12.15;3.88;;;7.00;99.90;;;;;;5076162;28;20036;-42
2022/02/23 09:57:18;;;;;;;8.88;3.75;;;7.10;99.90;;;;;;5067141;28;20527;-43
2022/02/23 09:59:43;;;;;;;12.15;4.05;;;7.10;99.90;;;;;;5077918;28;20139;-42
2022/02/23 10:02:12;;;;;;;9.80;3.92;;;7.20;99.90;;;;;;5067217;28;20182;-42
2022/02/23 10:04:40;;;;;;;8.40;3.90;;;7.30;99.90;;;;;;5077686;28;20055;-42
2022/02/23 10:07:07;;;;;;;10.18;3.90;;;7.30;99.90;;;;;;5066236;28;20035;-43
2022/02/23 10:09:44;;;;;;;14.57;5.07;;;7.40;99.90;;;;;;5078577;28;20105;-42
2022/02/23 10:12:21;;;;;;;12.23;4.60;;;7.50;99.90;;;;;;5066647;28;20021;-42
2022/02/23 10:14:47;;;;;;;12.32;5.88;;;7.60;99.90;;;;;;5074274;28;20074;-44
2022/02/23 10:17:16;;;;;;;11.15;4.93;;;7.70;99.90;;;;;;5086577;28;20066;-42
2022/02/23 10:19:50;;;;;;;17.58;6.07;;;7.70;99.90;;;;;;5073884;28;20020;-42
2022/02/23 10:22:21;;;;;;;15.55;6.43;;;7.80;99.90;;;;;;5086116;28;20031;-42
2022/02/23 10:24:47;;;;;;;15.25;5.60;;;7.90;99.90;;;;;;5073347;28;20032;-44
2022/02/23 10:27:14;;;;;;;13.13;5.32;;;8.00;99.90;;;;;;5086517;28;20073;-42
2022/02/23 10:29:47;;;;;;;13.07;5.18;;;8.00;99.90;;;;;;5073419;28;20028;-43
2022/02/23 10:32:14;;;;;;;13.05;5.55;;;8.00;99.90;;;;;;5066266;28;20033;-43
2022/02/23 10:34:48;;;;;;;13.25;5.20;;;8.00;99.90;;;;;;5076217;28;20020;-43
2022/02/23 10:37:20;;;;;;;13.02;5.32;;;8.00;99.90;;;;;;5066988;28;20036;-42
2022/02/23 10:39:47;;;;;;;10.75;5.13;;;8.00;99.90;;;;;;5075443;28;20032;-42
2022/02/23 10:42:18;;;;;;;10.40;5.28;;;8.00;99.90;;;;;;5067237;28;20182;-43
2022/02/23 10:44:52;;;;;;;10.35;4.28;;;8.10;99.90;;;;;;5074443;28;20016;-42
2022/02/23 10:47:22;;;;;;;13.80;5.40;;;8.20;99.90;;;;;;5068890;28;20028;-43
2022/02/23 10:50:24;;;;;;;18.13;7.32;;;8.30;99.90;;;;;;5072766;28;20024;-43
2022/02/23 10:52:59;;;;;;;15.25;5.80;;;8.30;99.90;;;;;;5055053;28;20049;-43
2022/02/23 10:55:29;;;;;;;13.40;5.10;;;8.40;99.90;;;;;;5076100;28;20031;-43
2022/02/23 10:57:57;;;;;;;10.80;4.82;;;8.50;99.90;;;;;;5066146;28;20036;-44
2022/02/23 11:00:31;;;;;;;9.95;4.55;;;8.60;99.90;;;;;;5074447;28;20101;-44
2022/02/23 11:02:57;;;;;;;11.38;4.95;;;8.60;99.90;;;;;;5066782;28;20487;-43
2022/02/23 11:05:24;;;;;;;8.07;3.53;;;8.70;99.90;;;;;;5073049;28;20023;-42
2022/02/23 11:07:52;;;;;;;11.77;3.88;;;8.80;99.90;;;;;;5070220;28;20044;-42
2022/02/23 11:10:18;;;;;;;12.07;3.35;;;8.90;99.90;;;;;;5066197;28;20039;-42
2022/02/23 11:12:49;;;;;;;6.25;2.83;;;8.90;99.90;;;;;;5079141;28;20638;-43
2022/02/23 11:15:19;;;;;;;10.55;3.47;;;8.90;99.90;;;;;;5082754;28;20062;-43
2022/02/23 11:17:46;;;;;;;8.60;3.63;;;8.90;99.90;;;;;;5073293;28;20047;-43
2022/02/23 11:20:18;;;;;;;9.30;3.25;;;9.00;99.90;;;;;;5067529;28;20029;-43
2022/02/23 11:22:47;;;;;;;10.10;3.33;;;9.00;99.90;;;;;;5074821;28;20186;-43
2022/02/23 11:25:13;;;;;;;8.38;3.15;;;9.00;99.90;;;;;;5065546;28;20036;-43
2022/02/23 11:27:42;;;;;;;8.93;3.13;;;9.10;99.90;;;;;;5076325;28;20555;-43
2022/02/23 11:30:10;;;;;;;9.27;2.80;;;9.20;99.90;;;;;;5066549;28;20062;-43
2022/02/23 11:32:41;;;;;;;8.38;3.08;;;9.20;99.90;;;;;;5075735;28;20111;-42
2022/02/23 11:35:07;;;;;;;9.05;2.85;;;9.30;99.90;;;;;;5066314;28;20020;-42
2022/02/23 11:37:33;;;;;;;8.93;2.75;;;9.30;99.90;;;;;;5077069;28;20024;-42
2022/02/23 11:40:00;;;;;;;8.10;2.63;;;9.40;99.90;;;;;;5064872;28;20070;-43
2022/02/23 11:42:26;;;;;;;8.50;2.95;;;9.40;99.90;;;;;;5077165;28;20475;-43
2022/02/23 11:45:13;;;;;;;9.63;3.45;;;9.40;99.90;;;;;;5065683;28;20044;-41
2022/02/23 11:47:46;;;;;;;10.90;2.90;;;9.50;99.90;;;;;;5086415;28;20065;-43
2022/02/23 11:50:22;;;;;;;8.35;2.75;;;9.60;99.90;;;;;;5105399;28;20531;-43
2022/02/23 11:52:50;;;;;;;7.53;3.00;;;9.60;99.90;;;;;;5087358;28;20495;-45
2022/02/23 11:55:25;;;;;;;6.85;2.20;;;9.60;99.90;;;;;;5085322;28;20059;-43
2022/02/23 11:57:58;;;;;;;7.45;2.45;;;9.60;99.90;;;;;;5076727;28;20040;-43
2022/02/23 12:00:29;;;;;;;8.73;2.42;;;9.70;99.90;;;;;;5088384;28;20017;-43
2022/02/23 12:03:04;;;;;;;7.90;2.28;;;9.70;99.90;;;;;;5077224;28;20036;-43
2022/02/23 12:05:41;;;;;;;7.70;2.47;;;9.70;99.90;;;;;;5088508;28;20028;-43
2022/02/23 12:08:27;;;;;;;8.88;2.85;;;9.70;99.90;;;;;;5084535;28;20043;-42
2022/02/23 12:10:52;;;;;;;8.88;2.35;;;9.80;99.90;;;;;;5068728;28;20063;-43
2022/02/23 12:13:42;;;;;;;10.77;3.10;;;9.80;99.90;;;;;;5080418;28;20063;-43
2022/02/23 12:16:28;;;;;;;7.15;2.33;;;9.90;99.90;;;;;;5068278;28;20090;-43
2022/02/23 12:18:58;;;;;;;8.25;2.90;;;9.90;99.90;;;;;;5077055;28;20134;-43
2022/02/23 12:21:43;;;;;;;6.95;2.55;;;10.00;99.90;;;;;;5088452;28;20103;-42
2022/02/23 12:24:19;;;;;;;7.28;2.42;;;10.00;99.90;;;;;;5077606;28;20024;-42
2022/02/23 12:26:48;;;;;;;9.50;2.20;;;10.10;99.90;;;;;;5088708;28;20028;-42
2022/02/23 12:29:16;;;;;;;8.95;2.83;;;10.10;99.90;;;;;;5075256;28;20455;-42
2022/02/23 12:31:46;;;;;;;7.95;2.50;;;10.20;99.90;;;;;;5089676;28;20027;-42
2022/02/23 12:34:18;;;;;;;5.80;2.13;;;10.30;99.90;;;;;;5075229;28;20115;-42
2022/02/23 12:36:49;;;;;;;8.75;2.30;;;10.40;99.90;;;;;;5088575;28;20108;-42
2022/02/23 12:39:19;;;;;;;6.93;1.95;;;10.40;99.90;;;;;;5075087;28;20625;-43
2022/02/23 12:41:56;;;;;;;7.28;2.20;;;10.50;99.90;;;;;;5088139;28;20342;-44
2022/02/23 12:44:23;;;;;;;8.05;2.53;;;10.50;99.90;;;;;;5076053;28;20070;-43
2022/02/23 12:46:55;;;;;;;10.25;2.88;;;10.60;99.90;;;;;;5088916;28;20023;-43
2022/02/23 12:49:22;;;;;;;6.70;2.25;;;10.60;99.90;;;;;;5080282;28;20024;-42
2022/02/23 12:51:49;;;;;;;7.30;2.60;;;10.70;99.90;;;;;;5089274;28;20107;-43
2022/02/23 12:54:17;;;;;;;7.40;2.28;;;10.70;99.90;;;;;;5077830;28;20166;-42
2022/02/23 12:56:51;;;;;;;7.53;2.13;;;10.70;99.90;;;;;;5085094;28;20491;-42